sensor_id;sensor_type;location;lat;lon;timestamp;temperature;humidity
8231;DHT22;4156;50.908;6.974;2024-02-23T09:09:08;8.60;99.90
8231;DHT22;4156;50.908;6.974;2024-02-23T09:11:34;8.80;99.90
8231;DHT22;4156;50.908;6.974;2024-02-23T09:13:59;8.80;99.90
8231;DHT22;4156;50.908;6.974;2024-02-23T09:16:25;8.80;99.90
8231;DHT22;4156;50.908;6.974;2024-02-23T09:18:50;8.80;99.90
8231;DHT22;4156;50.908;6.974;2024-02-23T09:21:16;8.80;99.90
8231;DHT22;4156;50.908;6.974;2024-02-23T09:23:42;8.80;99.90
8231;DHT22;4156;50.908;6.974;2024-02-23T09:26:10;8.80;99.90
8231;DHT22;4156;50.908;6.974;2024-02-23T09:28:36;8.80;99.90
8231;DHT22;4156;50.908;6.974;2024-02-23T09:31:02;8.80;99.90
8231;DHT22;4156;50.908;6.974;2024-02-23T09:33:28;8.80;99.90
8231;DHT22;4156;50.908;6.974;2024-02-23T09:35:54;8.80;99.90
8231;DHT22;4156;50.908;6.974;2024-02-23T09:38:19;8.80;99.90
8231;DHT22;4156;50.908;6.974;2024-02-23T09:40:46;8.80;99.90
8231;DHT22;4156;50.908;6.974;2024-02-23T09:43:12;8.80;99.90
8231;DHT22;4156;50.908;6.974;2024-02-23T09:45:39;8.80;99.90
8231;DHT22;4156;50.908;6.974;2024-02-23T09:48:06;8.90;99.90
8231;DHT22;4156;50.908;6.974;2024-02-23T09:50:32;8.90;99.90
8231;DHT22;4156;50.908;6.974;2024-02-23T09:52:58;8.90;99.90
8231;DHT22;4156;50.908;6.974;2024-02-23T09:55:24;8.90;99.90
8231;DHT22;4156;50.908;6.974;2024-02-23T09:57:52;9.00;99.90
8231;DHT22;4156;50.908;6.974;2024-02-23T10:00:23;9.00;99.90
8231;DHT22;4156;50.908;6.974;2024-02-23T10:02:49;9.00;99.90
8231;DHT22;4156;50.908;6.974;2024-02-23T10:05:16;9.00;99.90
8231;DHT22;4156;50.908;6.974;2024-02-23T10:07:42;8.90;99.90
8231;DHT22;4156;50.908;6.974;2024-02-23T10:10:09;8.90;99.90
8231;DHT22;4156;50.908;6.974;2024-02-23T10:12:36;9.00;99.90
8231;DHT22;4156;50.908;6.974;2024-02-23T10:15:03;9.00;99.90
8231;DHT22;4156;50.908;6.974;2024-02-23T10:17:32;9.00;99.90
8231;DHT22;4156;50.908;6.974;2024-02-23T10:19:58;9.00;99.90
8231;DHT22;4156;50.908;6.974;2024-02-23T10:22:24;9.00;99.90
8231;DHT22;4156;50.908;6.974;2024-02-23T10:24:55;9.00;99.90
8231;DHT22;4156;50.908;6.974;2024-02-23T10:27:21;9.00;99.90
8231;DHT22;4156;50.908;6.974;2024-02-23T10:29:50;9.10;99.90
8231;DHT22;4156;50.908;6.974;2024-02-23T10:32:15;9.10;99.90
8231;DHT22;4156;50.908;6.974;2024-02-23T10:34:43;9.10;99.90
8231;DHT22;4156;50.908;6.974;2024-02-23T10:37:09;9.10;99.90
8231;DHT22;4156;50.908;6.974;2024-02-23T10:39:38;9.10;99.90
8231;DHT22;4156;50.908;6.974;2024-02-23T10:42:08;9.10;99.90
8231;DHT22;4156;50.908;6.974;2024-02-23T10:44:34;9.10;99.90
8231;DHT22;4156;50.908;6.974;2024-02-23T10:47:01;9.10;99.90
8231;DHT22;4156;50.908;6.974;2024-02-23T10:49:28;9.20;99.90
8231;DHT22;4156;50.908;6.974;2024-02-23T10:51:54;9.20;99.90
8231;DHT22;4156;50.908;6.974;2024-02-23T10:54:20;9.10;99.90
8231;DHT22;4156;50.908;6.974;2024-02-23T10:56:48;9.20;99.90
8231;DHT22;4156;50.908;6.974;2024-02-23T10:59:14;9.20;99.90
8231;DHT22;4156;50.908;6.974;2024-02-23T11:01:45;9.20;99.90
8231;DHT22;4156;50.908;6.974;2024-02-23T11:04:12;9.20;99.90
8231;DHT22;4156;50.908;6.974;2024-02-23T11:06:38;9.30;99.90
8231;DHT22;4156;50.908;6.974;2024-02-23T11:09:07;9.30;99.90
8231;DHT22;4156;50.908;6.974;2024-02-23T11:11:37;9.30;99.90
8231;DHT22;4156;50.908;6.974;2024-02-23T11:14:03;9.30;99.90
8231;DHT22;4156;50.908;6.974;2024-02-23T11:16:32;9.30;99.90
8231;DHT22;4156;50.908;6.974;2024-02-23T11:19:09;9.30;99.90
8231;DHT22;4156;50.908;6.974;2024-02-23T11:21:38;9.30;99.90
8231;DHT22;4156;50.908;6.974;2024-02-23T11:24:04;9.30;99.90
8231;DHT22;4156;50.908;6.974;2024-02-23T11:26:30;9.40;99.90
8231;DHT22;4156;50.908;6.974;2024-02-23T11:28:57;9.40;99.90
8231;DHT22;4156;50.908;6.974;2024-02-23T11:31:25;9.40;99.90
8231;DHT22;4156;50.908;6.974;2024-02-23T11:33:55;9.40;99.90
8231;DHT22;4156;50.908;6.974;2024-02-23T11:36:28;9.40;99.90
8231;DHT22;4156;50.908;6.974;2024-02-23T11:38:54;9.40;99.90
8231;DHT22;4156;50.908;6.974;2024-02-23T11:41:22;9.50;99.90
8231;DHT22;4156;50.908;6.974;2024-02-23T11:43:49;9.40;99.90
8231;DHT22;4156;50.908;6.974;2024-02-23T11:46:18;9.50;99.90
8231;DHT22;4156;50.908;6.974;2024-02-23T11:48:45;9.40;99.90
8231;DHT22;4156;50.908;6.974;2024-02-23T11:51:15;9.50;99.90
8231;DHT22;4156;50.908;6.974;2024-02-23T11:53:40;9.40;99.90
8231;DHT22;4156;50.908;6.974;2024-02-23T11:56:07;9.50;99.90
8231;DHT22;4156;50.908;6.974;2024-02-23T11:58:33;9.50;99.90
8231;DHT22;4156;50.908;6.974;2024-02-23T12:00:59;9.50;99.90
8231;DHT22;4156;50.908;6.974;2024-02-23T12:03:28;9.50;99.90
8231;DHT22;4156;50.908;6.974;2024-02-23T12:05:54;9.50;99.90
8231;DHT22;4156;50.908;6.974;2024-02-23T12:08:20;9.50;99.90
8231;DHT22;4156;50.908;6.974;2024-02-23T12:10:45;9.60;99.90
8231;DHT22;4156;50.908;6.974;2024-02-23T12:13:13;9.60;99.90
8231;DHT22;4156;50.908;6.974;2024-02-23T12:15:39;9.60;99.90
8231;DHT22;4156;50.908;6.974;2024-02-23T12:18:04;9.60;99.90
8231;DHT22;4156;50.908;6.974;2024-02-23T12:20:33;9.60;99.90
8231;DHT22;4156;50.908;6.974;2024-02-23T12:23:01;9.60;99.90
8231;DHT22;4156;50.908;6.974;2024-02-23T12:25:26;9.60;99.90
8231;DHT22;4156;50.908;6.974;2024-02-23T12:27:55;9.60;99.90
8231;DHT22;4156;50.908;6.974;2024-02-23T12:30:22;9.60;99.90
8231;DHT22;4156;50.908;6.974;2024-02-23T12:32:47;9.60;99.90
8231;DHT22;4156;50.908;6.974;2024-02-23T12:35:14;9.60;99.90
8231;DHT22;4156;50.908;6.974;2024-02-23T12:37:40;9.60;99.90
8231;DHT22;4156;50.908;6.974;2024-02-23T12:40:07;9.60;99.90
8231;DHT22;4156;50.908;6.974;2024-02-23T12:42:34;9.60;99.90
8231;DHT22;4156;50.908;6.974;2024-02-23T12:45:00;9.70;99.90
8231;DHT22;4156;50.908;6.974;2024-02-23T12:47:26;9.70;99.90
8231;DHT22;4156;50.908;6.974;2024-02-23T12:49:51;9.70;99.90
8231;DHT22;4156;50.908;6.974;2024-02-23T12:52:17;9.70;99.90
8231;DHT22;4156;50.908;6.974;2024-02-23T12:54:42;9.70;99.90
8231;DHT22;4156;50.908;6.974;2024-02-23T12:57:08;9.70;99.90
8231;DHT22;4156;50.908;6.974;2024-02-23T12:59:34;9.80;99.90
8231;DHT22;4156;50.908;6.974;2024-02-23T13:01:59;9.80;99.90
8231;DHT22;4156;50.908;6.974;2024-02-23T13:04:25;9.80;99.90
8231;DHT22;4156;50.908;6.974;2024-02-23T13:06:50;9.80;99.90
8231;DHT22;4156;50.908;6.974;2024-02-23T13:09:16;9.80;99.90
8231;DHT22;4156;50.908;6.974;2024-02-23T13:11:42;9.80;99.90
8231;DHT22;4156;50.908;6.974;2024-02-23T13:14:07;9.90;99.90
8231;DHT22;4156;50.908;6.974;2024-02-23T13:16:34;9.90;99.90
8231;DHT22;4156;50.908;6.974;2024-02-23T13:19:00;9.90;99.90
8231;DHT22;4156;50.908;6.974;2024-02-23T13:21:25;9.90;99.90
8231;DHT22;4156;50.908;6.974;2024-02-23T13:23:51;9.90;99.90
8231;DHT22;4156;50.908;6.974;2024-02-23T13:26:16;9.90;99.90
8231;DHT22;4156;50.908;6.974;2024-02-23T13:28:43;9.90;99.90
8231;DHT22;4156;50.908;6.974;2024-02-23T13:31:09;9.90;99.90
8231;DHT22;4156;50.908;6.974;2024-02-23T13:33:35;9.90;99.90
8231;DHT22;4156;50.908;6.974;2024-02-23T13:36:01;9.90;99.90
8231;DHT22;4156;50.908;6.974;2024-02-23T13:38:26;9.90;99.90
8231;DHT22;4156;50.908;6.974;2024-02-23T13:40:52;10.00;99.90
8231;DHT22;4156;50.908;6.974;2024-02-23T13:43:17;9.90;99.90
8231;DHT22;4156;50.908;6.974;2024-02-23T13:45:52;9.90;99.90
8231;DHT22;4156;50.908;6.974;2024-02-23T13:48:18;9.90;99.90
8231;DHT22;4156;50.908;6.974;2024-02-23T13:50:48;9.90;99.90
8231;DHT22;4156;50.908;6.974;2024-02-23T13:53:14;10.00;99.90
8231;DHT22;4156;50.908;6.974;2024-02-23T13:55:40;10.00;99.90
8231;DHT22;4156;50.908;6.974;2024-02-23T13:58:06;10.00;99.90
8231;DHT22;4156;50.908;6.974;2024-02-23T14:00:31;10.00;99.90
8231;DHT22;4156;50.908;6.974;2024-02-23T14:02:57;10.00;99.90
8231;DHT22;4156;50.908;6.974;2024-02-23T14:05:22;10.00;99.90
8231;DHT22;4156;50.908;6.974;2024-02-23T14:07:50;10.00;99.90
8231;DHT22;4156;50.908;6.974;2024-02-23T14:10:16;10.00;99.90
8231;DHT22;4156;50.908;6.974;2024-02-23T14:12:42;10.00;99.90
8231;DHT22;4156;50.908;6.974;2024-02-23T14:15:08;10.10;99.90
8231;DHT22;4156;50.908;6.974;2024-02-23T14:17:35;10.10;99.90
8231;DHT22;4156;50.908;6.974;2024-02-23T14:20:01;10.10;99.90
8231;DHT22;4156;50.908;6.974;2024-02-23T14:22:28;10.10;99.90
8231;DHT22;4156;50.908;6.974;2024-02-23T14:24:53;10.10;99.90
8231;DHT22;4156;50.908;6.974;2024-02-23T14:27:19;10.10;99.90
8231;DHT22;4156;50.908;6.974;2024-02-23T14:29:46;10.10;99.90
8231;DHT22;4156;50.908;6.974;2024-02-23T14:32:15;10.10;99.90
8231;DHT22;4156;50.908;6.974;2024-02-23T14:34:41;10.10;99.90
8231;DHT22;4156;50.908;6.974;2024-02-23T14:37:07;10.10;99.90
8231;DHT22;4156;50.908;6.974;2024-02-23T14:39:32;10.10;99.90
8231;DHT22;4156;50.908;6.974;2024-02-23T14:41:59;10.10;99.90
8231;DHT22;4156;50.908;6.974;2024-02-23T14:44:25;10.10;99.90
8231;DHT22;4156;50.908;6.974;2024-02-23T14:46:51;10.10;99.90
8231;DHT22;4156;50.908;6.974;2024-02-23T14:49:17;10.10;99.90
8231;DHT22;4156;50.908;6.974;2024-02-23T14:51:43;10.20;99.90
8231;DHT22;4156;50.908;6.974;2024-02-23T14:54:11;10.20;99.90
8231;DHT22;4156;50.908;6.974;2024-02-23T14:56:37;10.20;99.90
8231;DHT22;4156;50.908;6.974;2024-02-23T14:59:03;10.20;99.90
8231;DHT22;4156;50.908;6.974;2024-02-23T15:01:28;10.20;99.90
8231;DHT22;4156;50.908;6.974;2024-02-23T15:03:54;10.20;99.90
8231;DHT22;4156;50.908;6.974;2024-02-23T15:06:19;10.20;99.90
8231;DHT22;4156;50.908;6.974;2024-02-23T15:08:48;10.20;99.90
8231;DHT22;4156;50.908;6.974;2024-02-23T15:11:13;10.20;99.90
8231;DHT22;4156;50.908;6.974;2024-02-23T15:13:39;10.10;99.90
8231;DHT22;4156;50.908;6.974;2024-02-23T15:16:05;10.00;99.90
8231;DHT22;4156;50.908;6.974;2024-02-23T15:18:31;10.00;99.90
8231;DHT22;4156;50.908;6.974;2024-02-23T15:20:57;10.10;99.90
8231;DHT22;4156;50.908;6.974;2024-02-23T15:23:22;10.10;99.90
8231;DHT22;4156;50.908;6.974;2024-02-23T15:25:49;10.10;99.90
8231;DHT22;4156;50.908;6.974;2024-02-23T15:28:15;10.20;99.90
8231;DHT22;4156;50.908;6.974;2024-02-23T15:30:51;10.20;99.90
8231;DHT22;4156;50.908;6.974;2024-02-23T15:33:17;10.10;99.90
8231;DHT22;4156;50.908;6.974;2024-02-23T15:35:43;10.10;99.90
8231;DHT22;4156;50.908;6.974;2024-02-23T15:38:08;10.10;99.90
8231;DHT22;4156;50.908;6.974;2024-02-23T15:40:34;10.00;99.90
8231;DHT22;4156;50.908;6.974;2024-02-23T15:42:59;10.00;99.90
8231;DHT22;4156;50.908;6.974;2024-02-23T15:45:25;10.00;99.90
8231;DHT22;4156;50.908;6.974;2024-02-23T15:47:50;10.00;99.90
8231;DHT22;4156;50.908;6.974;2024-02-23T15:50:16;10.00;99.90
8231;DHT22;4156;50.908;6.974;2024-02-23T15:52:43;10.00;99.90
8231;DHT22;4156;50.908;6.974;2024-02-23T15:55:09;10.00;99.90
8231;DHT22;4156;50.908;6.974;2024-02-23T15:57:38;10.00;99.90
8231;DHT22;4156;50.908;6.974;2024-02-23T16:00:05;10.00;99.90
8231;DHT22;4156;50.908;6.974;2024-02-23T16:02:30;10.00;99.90
8231;DHT22;4156;50.908;6.974;2024-02-23T16:04:56;10.00;99.90
8231;DHT22;4156;50.908;6.974;2024-02-23T16:07:22;10.00;99.90
8231;DHT22;4156;50.908;6.974;2024-02-23T16:09:47;10.00;99.90
8231;DHT22;4156;50.908;6.974;2024-02-23T16:12:13;10.00;99.90
8231;DHT22;4156;50.908;6.974;2024-02-23T16:14:39;10.00;99.90
8231;DHT22;4156;50.908;6.974;2024-02-23T16:17:04;10.10;99.90
8231;DHT22;4156;50.908;6.974;2024-02-23T16:19:30;10.10;99.90
8231;DHT22;4156;50.908;6.974;2024-02-23T16:21:55;10.10;99.90
8231;DHT22;4156;50.908;6.974;2024-02-23T16:24:22;10.10;99.90
8231;DHT22;4156;50.908;6.974;2024-02-23T16:26:47;10.10;99.90
8231;DHT22;4156;50.908;6.974;2024-02-23T16:29:13;10.10;99.90
8231;DHT22;4156;50.908;6.974;2024-02-23T16:31:38;10.10;99.90
8231;DHT22;4156;50.908;6.974;2024-02-23T16:34:05;10.10;99.90
8231;DHT22;4156;50.908;6.974;2024-02-23T16:36:30;10.10;99.90
8231;DHT22;4156;50.908;6.974;2024-02-23T16:38:56;10.20;99.90
8231;DHT22;4156;50.908;6.974;2024-02-23T16:41:22;10.30;99.90
8231;DHT22;4156;50.908;6.974;2024-02-23T16:43:48;9.90;99.90
8231;DHT22;4156;50.908;6.974;2024-02-23T16:46:14;10.20;99.90
8231;DHT22;4156;50.908;6.974;2024-02-23T16:48:39;10.20;99.90
8231;DHT22;4156;50.908;6.974;2024-02-23T16:51:05;10.20;99.90
8231;DHT22;4156;50.908;6.974;2024-02-23T16:53:31;10.20;99.90
8231;DHT22;4156;50.908;6.974;2024-02-23T16:55:57;10.20;99.90
8231;DHT22;4156;50.908;6.974;2024-02-23T16:58:29;10.20;99.90
8231;DHT22;4156;50.908;6.974;2024-02-23T17:01:01;10.20;99.90
8231;DHT22;4156;50.908;6.974;2024-02-23T17:03:28;10.10;99.90
8231;DHT22;4156;50.908;6.974;2024-02-23T17:05:54;10.10;99.90
8231;DHT22;4156;50.908;6.974;2024-02-23T17:08:19;9.80;99.90
8231;DHT22;4156;50.908;6.974;2024-02-23T17:10:45;10.10;99.90
8231;DHT22;4156;50.908;6.974;2024-02-23T17:13:10;10.10;99.90
8231;DHT22;4156;50.908;6.974;2024-02-23T17:15:36;10.00;99.90
8231;DHT22;4156;50.908;6.974;2024-02-23T17:18:02;10.00;99.90
8231;DHT22;4156;50.908;6.974;2024-02-23T17:20:28;10.00;99.90
8231;DHT22;4156;50.908;6.974;2024-02-23T17:22:53;10.00;99.90
8231;DHT22;4156;50.908;6.974;2024-02-23T17:25:19;10.00;99.90
8231;DHT22;4156;50.908;6.974;2024-02-23T17:27:44;10.00;99.90
8231;DHT22;4156;50.908;6.974;2024-02-23T17:30:11;10.00;99.90
8231;DHT22;4156;50.908;6.974;2024-02-23T17:32:36;10.00;99.90
8231;DHT22;4156;50.908;6.974;2024-02-23T17:35:02;10.00;99.90
8231;DHT22;4156;50.908;6.974;2024-02-23T17:37:28;10.00;99.90
8231;DHT22;4156;50.908;6.974;2024-02-23T17:39:57;10.00;99.90
8231;DHT22;4156;50.908;6.974;2024-02-23T17:42:23;10.00;99.90
8231;DHT22;4156;50.908;6.974;2024-02-23T17:44:48;10.00;99.90
8231;DHT22;4156;50.908;6.974;2024-02-23T17:47:14;10.00;99.90
8231;DHT22;4156;50.908;6.974;2024-02-23T17:49:39;10.00;99.90
8231;DHT22;4156;50.908;6.974;2024-02-23T17:52:05;10.00;99.90
8231;DHT22;4156;50.908;6.974;2024-02-23T17:54:31;10.00;99.90
8231;DHT22;4156;50.908;6.974;2024-02-23T17:56:56;10.00;99.90
8231;DHT22;4156;50.908;6.974;2024-02-23T17:59:22;10.00;99.90
8231;DHT22;4156;50.908;6.974;2024-02-23T18:01:48;10.20;99.90
8231;DHT22;4156;50.908;6.974;2024-02-23T18:04:13;10.00;99.90
8231;DHT22;4156;50.908;6.974;2024-02-23T18:06:39;9.90;99.90
8231;DHT22;4156;50.908;6.974;2024-02-23T18:09:05;9.90;99.90
8231;DHT22;4156;50.908;6.974;2024-02-23T18:11:31;9.90;99.90
8231;DHT22;4156;50.908;6.974;2024-02-23T18:13:57;9.90;99.90
8231;DHT22;4156;50.908;6.974;2024-02-23T18:16:23;9.90;99.90
8231;DHT22;4156;50.908;6.974;2024-02-23T18:18:49;9.90;99.90
8231;DHT22;4156;50.908;6.974;2024-02-23T18:21:16;10.00;99.90
8231;DHT22;4156;50.908;6.974;2024-02-23T18:23:45;9.80;99.90
8231;DHT22;4156;50.908;6.974;2024-02-23T18:26:14;9.80;99.90
8231;DHT22;4156;50.908;6.974;2024-02-23T18:28:41;9.70;99.90
8231;DHT22;4156;50.908;6.974;2024-02-23T18:31:07;9.80;99.90
8231;DHT22;4156;50.908;6.974;2024-02-23T18:33:33;9.80;99.90
8231;DHT22;4156;50.908;6.974;2024-02-23T18:35:58;9.80;99.90
8231;DHT22;4156;50.908;6.974;2024-02-23T18:38:24;9.80;99.90
8231;DHT22;4156;50.908;6.974;2024-02-23T18:40:50;9.80;99.90
8231;DHT22;4156;50.908;6.974;2024-02-23T18:43:16;9.80;99.90
8231;DHT22;4156;50.908;6.974;2024-02-23T18:45:42;9.80;99.90
8231;DHT22;4156;50.908;6.974;2024-02-23T18:48:07;9.80;99.90
8231;DHT22;4156;50.908;6.974;2024-02-23T18:50:33;9.70;99.90
8231;DHT22;4156;50.908;6.974;2024-02-23T18:52:59;9.70;99.90
8231;DHT22;4156;50.908;6.974;2024-02-23T18:55:25;9.70;99.90
8231;DHT22;4156;50.908;6.974;2024-02-23T18:57:50;9.70;99.90
8231;DHT22;4156;50.908;6.974;2024-02-23T19:00:16;9.70;99.90
8231;DHT22;4156;50.908;6.974;2024-02-23T19:02:42;9.70;99.90
8231;DHT22;4156;50.908;6.974;2024-02-23T19:05:07;9.70;99.90
8231;DHT22;4156;50.908;6.974;2024-02-23T19:07:34;9.70;99.90
8231;DHT22;4156;50.908;6.974;2024-02-23T19:09:59;9.70;99.90
8231;DHT22;4156;50.908;6.974;2024-02-23T19:12:25;9.70;99.90
8231;DHT22;4156;50.908;6.974;2024-02-23T19:14:50;9.70;99.90
8231;DHT22;4156;50.908;6.974;2024-02-23T19:17:16;9.70;99.90
8231;DHT22;4156;50.908;6.974;2024-02-23T19:19:42;9.60;99.90
8231;DHT22;4156;50.908;6.974;2024-02-23T19:22:07;9.70;99.90
8231;DHT22;4156;50.908;6.974;2024-02-23T19:24:33;9.70;99.90
8231;DHT22;4156;50.908;6.974;2024-02-23T19:26:59;9.70;99.90
8231;DHT22;4156;50.908;6.974;2024-02-23T19:29:25;9.70;99.90
8231;DHT22;4156;50.908;6.974;2024-02-23T19:31:50;9.60;99.90
8231;DHT22;4156;50.908;6.974;2024-02-23T19:34:16;9.60;99.90
8231;DHT22;4156;50.908;6.974;2024-02-23T19:40:07;9.50;99.90
8231;DHT22;4156;50.908;6.974;2024-02-23T19:42:37;9.40;99.90
8231;DHT22;4156;50.908;6.974;2024-02-23T19:45:03;9.40;99.90
8231;DHT22;4156;50.908;6.974;2024-02-23T19:47:30;9.40;99.90
8231;DHT22;4156;50.908;6.974;2024-02-23T19:49:55;9.40;99.90
8231;DHT22;4156;50.908;6.974;2024-02-23T19:52:21;9.40;99.90
8231;DHT22;4156;50.908;6.974;2024-02-23T19:54:47;9.30;99.90
8231;DHT22;4156;50.908;6.974;2024-02-23T19:57:13;9.30;99.90
8231;DHT22;4156;50.908;6.974;2024-02-23T19:59:39;9.30;99.90
8231;DHT22;4156;50.908;6.974;2024-02-23T20:02:06;9.30;99.90
8231;DHT22;4156;50.908;6.974;2024-02-23T20:04:42;9.30;99.90
8231;DHT22;4156;50.908;6.974;2024-02-23T20:07:08;9.20;99.90
8231;DHT22;4156;50.908;6.974;2024-02-23T20:09:35;9.10;99.90
8231;DHT22;4156;50.908;6.974;2024-02-23T20:12:01;9.20;99.90
8231;DHT22;4156;50.908;6.974;2024-02-23T20:14:27;9.20;99.90
8231;DHT22;4156;50.908;6.974;2024-02-23T20:16:52;9.20;99.90
8231;DHT22;4156;50.908;6.974;2024-02-23T20:19:18;9.10;99.90
8231;DHT22;4156;50.908;6.974;2024-02-23T20:21:43;9.10;99.90
8231;DHT22;4156;50.908;6.974;2024-02-23T20:24:09;9.10;99.90
8231;DHT22;4156;50.908;6.974;2024-02-23T20:26:35;9.10;99.90
8231;DHT22;4156;50.908;6.974;2024-02-23T20:29:01;9.00;99.90
8231;DHT22;4156;50.908;6.974;2024-02-23T20:31:26;9.00;99.90
8231;DHT22;4156;50.908;6.974;2024-02-23T20:33:52;9.00;99.90
8231;DHT22;4156;50.908;6.974;2024-02-23T20:36:17;9.00;99.90
8231;DHT22;4156;50.908;6.974;2024-02-23T20:38:43;9.00;99.90
8231;DHT22;4156;50.908;6.974;2024-02-23T20:41:08;9.00;99.90
8231;DHT22;4156;50.908;6.974;2024-02-23T20:43:34;8.90;99.90
8231;DHT22;4156;50.908;6.974;2024-02-23T20:45:59;9.00;99.90
8231;DHT22;4156;50.908;6.974;2024-02-23T20:48:25;9.00;99.90
8231;DHT22;4156;50.908;6.974;2024-02-23T20:50:51;9.00;99.90
8231;DHT22;4156;50.908;6.974;2024-02-23T20:53:16;8.90;99.90
8231;DHT22;4156;50.908;6.974;2024-02-23T20:55:42;9.00;99.90
8231;DHT22;4156;50.908;6.974;2024-02-23T20:58:07;9.00;99.90
8231;DHT22;4156;50.908;6.974;2024-02-23T21:00:33;9.00;99.90
8231;DHT22;4156;50.908;6.974;2024-02-23T21:02:58;9.00;99.90
8231;DHT22;4156;50.908;6.974;2024-02-23T21:05:24;9.10;99.90
8231;DHT22;4156;50.908;6.974;2024-02-23T21:07:49;9.00;99.90
8231;DHT22;4156;50.908;6.974;2024-02-23T21:10:16;9.00;99.90
8231;DHT22;4156;50.908;6.974;2024-02-23T21:12:42;9.00;99.90
8231;DHT22;4156;50.908;6.974;2024-02-23T21:15:07;9.00;99.90
8231;DHT22;4156;50.908;6.974;2024-02-23T21:17:33;8.90;99.90
8231;DHT22;4156;50.908;6.974;2024-02-23T21:19:59;8.90;99.90
8231;DHT22;4156;50.908;6.974;2024-02-23T21:22:24;8.90;99.90
8231;DHT22;4156;50.908;6.974;2024-02-23T21:24:50;8.90;99.90
8231;DHT22;4156;50.908;6.974;2024-02-23T21:27:16;8.80;99.90
8231;DHT22;4156;50.908;6.974;2024-02-23T21:29:41;8.90;99.90
8231;DHT22;4156;50.908;6.974;2024-02-23T21:32:09;8.90;99.90
8231;DHT22;4156;50.908;6.974;2024-02-23T21:34:34;8.90;99.90
8231;DHT22;4156;50.908;6.974;2024-02-23T21:37:00;8.90;99.90
8231;DHT22;4156;50.908;6.974;2024-02-23T21:39:25;8.80;99.90
8231;DHT22;4156;50.908;6.974;2024-02-23T21:41:52;8.80;99.90
8231;DHT22;4156;50.908;6.974;2024-02-23T21:44:17;8.80;99.90
8231;DHT22;4156;50.908;6.974;2024-02-23T21:46:43;8.80;99.90
8231;DHT22;4156;50.908;6.974;2024-02-23T21:49:09;8.80;99.90
8231;DHT22;4156;50.908;6.974;2024-02-23T21:51:35;8.70;99.90
8231;DHT22;4156;50.908;6.974;2024-02-23T21:54:00;8.70;99.90
8231;DHT22;4156;50.908;6.974;2024-02-23T21:56:26;8.70;99.90
8231;DHT22;4156;50.908;6.974;2024-02-23T21:58:52;8.70;99.90
8231;DHT22;4156;50.908;6.974;2024-02-23T22:01:17;8.80;99.90
8231;DHT22;4156;50.908;6.974;2024-02-23T22:03:43;8.70;99.90
8231;DHT22;4156;50.908;6.974;2024-02-23T22:06:09;8.70;99.90
8231;DHT22;4156;50.908;6.974;2024-02-23T22:08:34;8.70;99.90
8231;DHT22;4156;50.908;6.974;2024-02-23T22:11:00;8.80;99.90
8231;DHT22;4156;50.908;6.974;2024-02-23T22:13:25;8.70;99.90
8231;DHT22;4156;50.908;6.974;2024-02-23T22:15:51;8.70;99.90
8231;DHT22;4156;50.908;6.974;2024-02-23T22:18:17;8.70;99.90
8231;DHT22;4156;50.908;6.974;2024-02-23T22:20:42;8.70;99.90
8231;DHT22;4156;50.908;6.974;2024-02-23T22:23:08;8.80;99.90
8231;DHT22;4156;50.908;6.974;2024-02-23T22:25:36;8.70;99.90
8231;DHT22;4156;50.908;6.974;2024-02-23T22:28:02;8.60;99.90
8231;DHT22;4156;50.908;6.974;2024-02-23T22:30:28;8.60;99.90
8231;DHT22;4156;50.908;6.974;2024-02-23T22:32:53;8.60;99.90
8231;DHT22;4156;50.908;6.974;2024-02-23T22:35:19;8.60;99.90
8231;DHT22;4156;50.908;6.974;2024-02-23T22:37:47;8.50;99.90
8231;DHT22;4156;50.908;6.974;2024-02-23T22:40:13;8.50;99.90
8231;DHT22;4156;50.908;6.974;2024-02-23T22:42:39;8.50;99.90
8231;DHT22;4156;50.908;6.974;2024-02-23T22:45:05;8.50;99.90
8231;DHT22;4156;50.908;6.974;2024-02-23T22:47:31;8.40;99.90
8231;DHT22;4156;50.908;6.974;2024-02-23T22:49:59;8.40;99.90
8231;DHT22;4156;50.908;6.974;2024-02-23T22:52:24;8.40;99.90
8231;DHT22;4156;50.908;6.974;2024-02-23T22:54:50;8.30;99.90
8231;DHT22;4156;50.908;6.974;2024-02-23T22:57:15;8.30;99.90
8231;DHT22;4156;50.908;6.974;2024-02-23T22:59:41;8.30;99.90
8231;DHT22;4156;50.908;6.974;2024-02-23T23:02:06;8.30;99.90
8231;DHT22;4156;50.908;6.974;2024-02-23T23:04:32;8.30;99.90
8231;DHT22;4156;50.908;6.974;2024-02-23T23:06:58;8.30;99.90
8231;DHT22;4156;50.908;6.974;2024-02-23T23:09:23;8.40;99.90
8231;DHT22;4156;50.908;6.974;2024-02-23T23:11:49;8.30;99.90
8231;DHT22;4156;50.908;6.974;2024-02-23T23:14:14;8.30;99.90
8231;DHT22;4156;50.908;6.974;2024-02-23T23:16:40;8.20;99.90
8231;DHT22;4156;50.908;6.974;2024-02-23T23:19:05;8.20;99.90
8231;DHT22;4156;50.908;6.974;2024-02-23T23:21:31;8.30;99.90
8231;DHT22;4156;50.908;6.974;2024-02-23T23:23:57;8.30;99.90
8231;DHT22;4156;50.908;6.974;2024-02-23T23:26:23;8.20;99.90
8231;DHT22;4156;50.908;6.974;2024-02-23T23:28:49;8.20;99.90
8231;DHT22;4156;50.908;6.974;2024-02-23T23:31:15;8.20;99.90
8231;DHT22;4156;50.908;6.974;2024-02-23T23:33:41;8.20;99.90
8231;DHT22;4156;50.908;6.974;2024-02-23T23:36:07;8.20;99.90
8231;DHT22;4156;50.908;6.974;2024-02-23T23:38:33;8.20;99.90
8231;DHT22;4156;50.908;6.974;2024-02-23T23:40:58;8.10;99.90
8231;DHT22;4156;50.908;6.974;2024-02-23T23:43:24;8.20;99.90
8231;DHT22;4156;50.908;6.974;2024-02-23T23:45:49;8.20;99.90
8231;DHT22;4156;50.908;6.974;2024-02-23T23:48:16;8.10;99.90
8231;DHT22;4156;50.908;6.974;2024-02-23T23:50:42;8.10;99.90
8231;DHT22;4156;50.908;6.974;2024-02-23T23:53:08;8.10;99.90
8231;DHT22;4156;50.908;6.974;2024-02-23T23:55:33;8.10;99.90
8231;DHT22;4156;50.908;6.974;2024-02-23T23:57:59;8.10;99.90
